AirNav   TITAN Aviation Fuels
 
 761 users online  

NV00 Valley View Airport
Pahrump, Nevada, USA

GOING TO PAHRUMP?


FAA INFORMATION EFFECTIVE 01 DECEMBER 2022

Location

FAA Identifier: NV00
Lat/Long: 36-15-19.8600N 115-59-33.1000W
36-15.331000N 115-59.551667W
36.2555167,-115.9925278
(estimated)
Elevation: 2740 ft. / 835 m (estimated)
Variation: 14E (1985)
From city: 5 miles N of PAHRUMP, NV
Time zone: UTC -8 (UTC -7 during Daylight Saving Time)
Zip code: 89048

Airport Operations

Airport use: Private use. Permission required prior to landing
Activation date: 07/1989
Control tower: no
ARTCC: LOS ANGELES CENTER
FSS: RENO FLIGHT SERVICE STATION
Attendance: UNATNDD
Segmented circle: no

Airport Services

Runway Information

Runway 18/36

Dimensions: 2520 x 50 ft. / 768 x 15 m
Surface: gravel
RUNWAY 18  RUNWAY 36
Traffic pattern: leftleft

Airport Ownership and Management from official FAA records

Ownership: Privately-owned
Owner: ROBERT BIEGANSKI
PO BOX 400
PAHRUMP, NV 89041
Phone 775-727-5504
Manager: ROBERT BIEGANSKI
PO BOX 400
PAHRUMP, NV 89041
Phone 775-727-7670

Airport Operational Statistics

Aircraft based on the field: 3
Single engine airplanes: 3
    

Additional Remarks

FOR CD CTC LOS ANGELES ARTCC AT 661-575-2079.

Instrument Procedures

There are no published instrument procedures at NV00.

Some nearby airports with instrument procedures:

KVGT - North Las Vegas Airport (39 nm E)
KLAS - Harry Reid International Airport (42 nm E)
KHND - Henderson Executive Airport (45 nm E)
KLSV - Nellis Air Force Base (46 nm E)
KBVU - Boulder City Municipal Airport (58 nm E)
 
Loc | Ops | Rwys | IFR | FBO | Links
Com | Nav | Svcs | Stats | Notes
Area around NV00 (Valley View Airport)
 
Road maps at: MapQuest Bing Google
 
Aerial photo
No photo
 
Sectional chart

 
Airport distance calculator
Flying to Valley View Airport? Find the distance to fly.

From to NV00

Sunrise and sunset
Times for 05-Dec-2022
 Local
(UTC-8)
 Zulu
(UTC)
Morning civil twilight06:1314:13
Sunrise06:4114:41
Sunset16:2800:28
Evening civil twilight16:5600:56

Current date and time
Zulu (UTC)  06-Dec-2022 05:05:39
Local (UTC-8)  05-Dec-2022 21:05:39
 
METAR
KDRA 
22nm N 
060453Z AUTO 00000KT 10SM CLR 04/M03 A2989 RMK AO2 SLP111 T00391033
KINS 
25nm NE 
060455Z AUTO 00000KT 10SM CLR 06/M01 A2990 RMK AO2 SLP117 T00571012 $
KVGT 
39nm E 
060453Z AUTO 30007KT 10SM CLR 10/01 A2988 RMK AO2 SLP133 T01000011
KLAS 
42nm E 
060456Z 20004KT 10SM FEW140 FEW220 11/M01 A2990 RMK AO2 SLP119 T01061006
TAF
KINS 
25nm NE 
0521/0703 29012KT 9999 SCT050 BKN180 QNH2986INS BECMG 0601/0602 VRB06KT 9999 FEW060 BKN180 QNH2991INS BECMG 0619/0620 24012KT 9999 SCT060 BKN150 QNH2997INS -SHSN OMTNS S BECMG 0701/0702 23009KT 9000 -RASN BKN060 OVC150 630603 QNH2995INS TX14/0521Z TN03/0612Z
NOTAMs
Click for the latest NOTAMs
NOTAMs are issued by the DoD/FAA and will open in a separate window not controlled by AirNav.

 

 
 

Would you like to see your business listed on this page?

 If your business provides an interesting product or service to pilots, flight crews, aircraft, or users of the Valley View Airport, you should consider listing it here.  To start the listing process, click on the button below
 
Add a business
 

Other Pages about Valley View Airport

Update a link
 
Copyright © AirNav, LLC. All rights reserved. Privacy Policy  Contact